createdAt,value
2023-12-03T00:01:45.452Z,98832.66
2023-12-03T00:04:12.569Z,98838.28
2023-12-03T00:06:41.964Z,98834.91
2023-12-03T00:09:09.898Z,98833.78
2023-12-03T00:11:36.760Z,98836.91
2023-12-03T00:14:03.667Z,98832.66
2023-12-03T00:16:30.403Z,98832.72
2023-12-03T00:18:57.740Z,98827.97
2023-12-03T00:21:24.607Z,98824.78
2023-12-03T00:23:51.546Z,98828.13
2023-12-03T00:26:18.381Z,98827.91
2023-12-03T00:28:47.049Z,98830.88
2023-12-03T00:31:13.879Z,98833.25
2023-12-03T00:33:40.767Z,98831.50
2023-12-03T00:36:07.960Z,98824.63
2023-12-03T00:38:34.812Z,98824.56
2023-12-03T00:41:01.538Z,98824.47
2023-12-03T00:43:28.339Z,98824.47
2023-12-03T00:45:55.391Z,98826.19
2023-12-03T00:48:22.285Z,98830.28
2023-12-03T00:50:50.030Z,98828.72
2023-12-03T00:53:16.825Z,98835.56
2023-12-03T00:55:43.570Z,98835.69
2023-12-03T00:58:10.370Z,98834.94
2023-12-03T01:00:37.126Z,98843.78
2023-12-03T01:03:03.954Z,98849.94
2023-12-03T01:05:30.754Z,98851.19
2023-12-03T01:07:57.691Z,98845.50
2023-12-03T01:10:24.532Z,98855.34
2023-12-03T01:12:51.677Z,98856.41
2023-12-03T01:15:18.508Z,98855.44
2023-12-03T01:17:45.278Z,98850.88
2023-12-03T01:20:12.362Z,98849.31
2023-12-03T01:22:39.152Z,98846.78
2023-12-03T01:25:06.315Z,98851.34
2023-12-03T01:27:33.203Z,98858.34
2023-12-03T01:30:00.203Z,98861.19
2023-12-03T01:32:27.082Z,98859.53
2023-12-03T01:34:53.901Z,98867.25
2023-12-03T01:37:20.731Z,98868.41
2023-12-03T01:39:47.731Z,98871.00
2023-12-03T01:42:14.621Z,98859.69
2023-12-03T01:44:41.425Z,98863.22
2023-12-03T01:47:08.816Z,98874.56
2023-12-03T01:49:36.380Z,98880.59
2023-12-03T01:52:04.013Z,98879.75
2023-12-03T01:54:36.473Z,98883.97
2023-12-03T01:57:03.867Z,98885.03
2023-12-03T01:59:32.603Z,98880.06
2023-12-03T02:01:59.536Z,98887.00
2023-12-03T02:04:26.409Z,98891.28
2023-12-03T02:06:53.269Z,98895.44
2023-12-03T02:09:21.343Z,98895.88
2023-12-03T02:11:48.654Z,98897.75
2023-12-03T02:14:15.673Z,98891.78
2023-12-03T02:16:46.627Z,98887.50
2023-12-03T02:19:13.503Z,98890.19
2023-12-03T02:21:41.266Z,98882.44
2023-12-03T02:24:08.165Z,98887.69
2023-12-03T02:26:35.229Z,98884.91
2023-12-03T02:29:02.052Z,98884.16
2023-12-03T02:31:31.613Z,98886.91
2023-12-03T02:34:07.892Z,98881.75
2023-12-03T02:36:35.375Z,98886.81
2023-12-03T02:39:02.865Z,98889.56
2023-12-03T02:41:29.937Z,98887.81
2023-12-03T02:43:56.887Z,98895.72
2023-12-03T02:46:23.943Z,98889.22
2023-12-03T02:48:51.209Z,98892.97
2023-12-03T02:51:18.397Z,98904.47
2023-12-03T02:53:46.416Z,98903.59
2023-12-03T02:56:16.593Z,98897.41
2023-12-03T02:58:43.389Z,98911.13
2023-12-03T03:01:10.561Z,98920.66
2023-12-03T03:03:37.476Z,98913.19
2023-12-03T03:06:04.422Z,98910.50
2023-12-03T03:08:31.236Z,98906.97
2023-12-03T03:10:57.931Z,98912.38
2023-12-03T03:13:24.702Z,98910.50
2023-12-03T03:15:51.470Z,98915.88
2023-12-03T03:18:18.318Z,98916.41
2023-12-03T03:20:45.188Z,98919.81
2023-12-03T03:23:11.915Z,98928.47
2023-12-03T03:25:38.669Z,98924.34
2023-12-03T03:28:05.467Z,98919.84
2023-12-03T03:30:32.330Z,98916.41
2023-12-03T03:32:59.199Z,98925.22
2023-12-03T03:35:26.021Z,98927.59
2023-12-03T03:37:52.750Z,98923.06
2023-12-03T03:40:19.509Z,98927.56
2023-12-03T03:42:46.283Z,98931.06
2023-12-03T03:45:13.166Z,98931.84
2023-12-03T03:47:40.089Z,98931.28
2023-12-03T03:50:07.314Z,98927.41
2023-12-03T03:52:34.062Z,98926.09
2023-12-03T03:55:00.859Z,98924.34
2023-12-03T03:57:27.712Z,98931.44
2023-12-03T03:59:54.489Z,98926.00
2023-12-03T04:02:21.366Z,98942.41
2023-12-03T04:04:48.467Z,98951.63
2023-12-03T04:07:15.491Z,98944.47
2023-12-03T04:09:42.410Z,98947.47
2023-12-03T04:12:09.208Z,98941.50
2023-12-03T04:14:36.509Z,98944.09
2023-12-03T04:17:04.646Z,98932.09
2023-12-03T04:19:31.559Z,98936.53
2023-12-03T04:21:58.335Z,98944.16
2023-12-03T04:24:25.158Z,98946.25
2023-12-03T04:26:52.056Z,98958.94
2023-12-03T04:29:18.952Z,98942.59
2023-12-03T04:31:45.716Z,98952.50
2023-12-03T04:34:13.589Z,98950.47
2023-12-03T04:36:43.137Z,98948.94
2023-12-03T04:39:10.394Z,98945.09
2023-12-03T04:41:39.005Z,98943.38
2023-12-03T04:44:05.951Z,98947.56
2023-12-03T04:46:32.831Z,98944.16
2023-12-03T04:48:59.765Z,98946.06
2023-12-03T04:51:26.861Z,98954.53
2023-12-03T04:53:53.823Z,98958.63
2023-12-03T04:56:20.563Z,98955.97
2023-12-03T04:58:47.331Z,98956.13
2023-12-03T05:01:17.188Z,98962.34
2023-12-03T05:03:48.618Z,98950.06
2023-12-03T05:06:15.714Z,98942.44
2023-12-03T05:08:42.590Z,98952.50
2023-12-03T05:11:09.691Z,98961.09
2023-12-03T05:13:36.516Z,98966.50
2023-12-03T05:16:07.668Z,98963.69
2023-12-03T05:18:34.737Z,98959.63
2023-12-03T05:21:02.791Z,98962.09
2023-12-03T05:23:29.626Z,98970.81
2023-12-03T05:25:58.178Z,98973.88
2023-12-03T05:28:24.959Z,98970.03
2023-12-03T05:30:51.819Z,98971.31
2023-12-03T05:33:18.793Z,98968.50
2023-12-03T05:35:45.718Z,98962.34
2023-12-03T05:38:12.539Z,98971.25
2023-12-03T05:40:39.439Z,98966.00
2023-12-03T05:43:06.235Z,98955.28
2023-12-03T05:45:33.082Z,98967.72
2023-12-03T05:47:59.969Z,98970.44
2023-12-03T05:50:26.740Z,98969.56
2023-12-03T05:52:53.476Z,98964.59
2023-12-03T05:55:20.763Z,98973.63
2023-12-03T05:57:47.579Z,98977.09
2023-12-03T06:00:14.967Z,98979.25
2023-12-03T06:02:42.037Z,98974.88
2023-12-03T06:05:09.012Z,98971.19
2023-12-03T06:07:35.902Z,98961.78
2023-12-03T06:10:02.869Z,98971.59
2023-12-03T06:12:30.213Z,98963.16
2023-12-03T06:14:56.994Z,98961.66
2023-12-03T06:17:23.802Z,98964.94
2023-12-03T06:19:50.657Z,98964.22
2023-12-03T06:22:17.487Z,98964.31
2023-12-03T06:24:44.348Z,98963.34
2023-12-03T06:27:11.177Z,98965.44
2023-12-03T06:29:37.936Z,98973.06
2023-12-03T06:32:04.827Z,98976.19
2023-12-03T06:34:31.644Z,98972.78
2023-12-03T06:36:59.638Z,98977.72
2023-12-03T06:39:26.564Z,98986.47
2023-12-03T06:41:53.514Z,98978.91
2023-12-03T06:44:31.000Z,98980.81
2023-12-03T06:47:06.275Z,98982.31
2023-12-03T06:49:34.472Z,98991.00
2023-12-03T06:52:01.367Z,98992.25
2023-12-03T06:54:28.372Z,99011.22
2023-12-03T06:56:55.234Z,99015.38
2023-12-03T06:59:22.034Z,99026.28
2023-12-03T07:01:48.848Z,99025.72
2023-12-03T07:04:15.554Z,99029.13
2023-12-03T07:06:42.450Z,99028.59
2023-12-03T07:09:36.263Z,99030.81
2023-12-03T07:11:56.097Z,99029.66
2023-12-03T07:14:22.824Z,99044.06
2023-12-03T07:16:49.647Z,99052.88
2023-12-03T07:19:16.418Z,99058.00
2023-12-03T07:21:43.373Z,99046.88
2023-12-03T07:24:10.137Z,99040.84
2023-12-03T07:26:36.992Z,99033.97
2023-12-03T07:29:03.963Z,99042.50
2023-12-03T07:31:32.248Z,99038.16
2023-12-03T07:33:59.042Z,99033.81
2023-12-03T07:36:26.794Z,99037.28
2023-12-03T07:38:53.600Z,99050.59
2023-12-03T07:41:20.380Z,99034.41
2023-12-03T07:43:47.168Z,99037.22
2023-12-03T07:46:18.120Z,99031.31
2023-12-03T07:48:45.847Z,99033.47
2023-12-03T07:51:13.345Z,99039.69
2023-12-03T07:53:41.267Z,99036.91
2023-12-03T07:56:09.569Z,99040.09
2023-12-03T07:58:37.268Z,99043.06
2023-12-03T08:01:06.562Z,99044.72
2023-12-03T08:03:33.913Z,99051.00
2023-12-03T08:06:00.935Z,99055.03
2023-12-03T08:08:27.862Z,99056.16
2023-12-03T08:10:54.765Z,99052.78
2023-12-03T08:13:21.627Z,99049.75
2023-12-03T08:15:48.420Z,99047.34
2023-12-03T08:18:15.289Z,99037.69
2023-12-03T08:20:42.116Z,99033.13
2023-12-03T08:23:08.963Z,99021.19
2023-12-03T08:25:35.783Z,99016.97
2023-12-03T08:28:03.795Z,99015.56
2023-12-03T08:30:30.628Z,99017.06
2023-12-03T08:32:57.649Z,99006.53
2023-12-03T08:35:24.434Z,98999.09
2023-12-03T08:37:51.236Z,99012.56
2023-12-03T08:40:18.111Z,99012.81
2023-12-03T08:42:45.768Z,99017.91
2023-12-03T08:45:12.882Z,99019.69
2023-12-03T08:47:39.770Z,99021.50
2023-12-03T08:50:07.392Z,99010.31
2023-12-03T08:52:34.567Z,99013.63
2023-12-03T08:55:02.098Z,99011.56
2023-12-03T08:57:28.902Z,99010.31
2023-12-03T08:59:55.769Z,99009.34
2023-12-03T09:02:22.805Z,99013.19
2023-12-03T09:04:52.318Z,99017.66
2023-12-03T09:07:19.383Z,99010.22
2023-12-03T09:09:46.802Z,99012.22
2023-12-03T09:12:15.274Z,99003.50
2023-12-03T09:14:42.042Z,99002.31
2023-12-03T09:17:08.894Z,99012.72
2023-12-03T09:19:35.774Z,99012.91
2023-12-03T09:22:02.801Z,99010.66
2023-12-03T09:24:29.637Z,99004.72
2023-12-03T09:26:56.465Z,99006.53
2023-12-03T09:29:23.258Z,99002.00
2023-12-03T09:31:50.026Z,99002.44
2023-12-03T09:34:16.931Z,99000.13
2023-12-03T09:36:43.783Z,98998.47
2023-12-03T09:39:10.918Z,99000.47
2023-12-03T09:41:49.340Z,99002.91
2023-12-03T09:44:32.702Z,99001.88
2023-12-03T09:47:00.611Z,98991.56
2023-12-03T09:49:31.224Z,99003.22
2023-12-03T09:52:03.802Z,99003.41
2023-12-03T09:54:32.866Z,98997.38
2023-12-03T09:57:00.716Z,99002.00
2023-12-03T09:59:27.970Z,99004.75
2023-12-03T10:01:58.655Z,98994.75
2023-12-03T10:04:28.835Z,98985.50
2023-12-03T10:06:59.661Z,98985.91
2023-12-03T10:09:27.762Z,98978.34
2023-12-03T10:11:56.576Z,98970.47
2023-12-03T10:14:23.833Z,98968.34
2023-12-03T10:16:51.361Z,98963.31
2023-12-03T10:19:26.537Z,98961.59
2023-12-03T10:21:54.722Z,98964.81
2023-12-03T10:24:21.655Z,98948.75
2023-12-03T10:26:52.947Z,98939.22
2023-12-03T10:29:27.202Z,98914.03
2023-12-03T10:31:54.618Z,98864.56
2023-12-03T10:34:22.540Z,98895.56
2023-12-03T10:36:51.129Z,98927.19
2023-12-03T10:39:21.423Z,98931.38
2023-12-03T10:41:50.667Z,98917.88
2023-12-03T10:44:25.578Z,98928.84
2023-12-03T10:46:52.386Z,98922.56
2023-12-03T10:49:21.693Z,98921.50
2023-12-03T10:51:49.000Z,98939.19
2023-12-03T10:54:16.063Z,98938.91
2023-12-03T10:56:44.560Z,98936.53
2023-12-03T10:59:21.947Z,98942.31
2023-12-03T11:01:55.026Z,98940.03
2023-12-03T11:04:35.571Z,98936.91
2023-12-03T11:07:07.506Z,98933.94
2023-12-03T11:09:41.757Z,98931.28
2023-12-03T11:12:10.658Z,98920.53
2023-12-03T11:14:38.090Z,98911.56
2023-12-03T11:17:18.938Z,98904.31
2023-12-03T11:19:55.374Z,98890.00
2023-12-03T11:22:47.902Z,98883.03
2023-12-03T11:25:32.681Z,98868.88
2023-12-03T11:27:59.613Z,98863.03
2023-12-03T11:30:43.269Z,98864.97
2023-12-03T11:33:16.554Z,98857.22
2023-12-03T11:35:47.664Z,98855.53
2023-12-03T11:38:23.433Z,98859.59
2023-12-03T11:40:51.001Z,98860.66
2023-12-03T11:43:27.578Z,98855.63
2023-12-03T11:45:54.744Z,98864.50
2023-12-03T11:48:23.952Z,98860.41
2023-12-03T11:50:51.222Z,98853.75
2023-12-03T11:53:18.501Z,98853.88
2023-12-03T11:55:50.339Z,98853.97
2023-12-03T11:58:18.190Z,98844.06
2023-12-03T12:00:48.134Z,98842.31
2023-12-03T12:03:15.276Z,98848.75
2023-12-03T12:05:50.405Z,98851.47
2023-12-03T12:08:21.164Z,98857.97
2023-12-03T12:10:51.287Z,98858.84
2023-12-03T12:13:20.365Z,98866.59
2023-12-03T12:15:47.794Z,98876.03
2023-12-03T12:18:14.725Z,98880.69
2023-12-03T12:20:41.670Z,98879.88
2023-12-03T12:23:08.481Z,98885.41
2023-12-03T12:25:35.376Z,98893.00
2023-12-03T12:28:02.459Z,98903.84
2023-12-03T12:30:34.812Z,98914.59
2023-12-03T12:33:04.034Z,98905.31
2023-12-03T12:35:31.305Z,98912.31
2023-12-03T12:38:01.416Z,98913.44
2023-12-03T12:40:31.181Z,98907.44
2023-12-03T12:43:13.893Z,98909.47
2023-12-03T12:45:41.603Z,98913.94
2023-12-03T12:48:25.470Z,98898.16
2023-12-03T12:50:52.645Z,98892.03
2023-12-03T12:53:20.109Z,98893.72
2023-12-03T12:55:46.953Z,98889.38
2023-12-03T12:58:13.814Z,98877.94
2023-12-03T13:00:40.599Z,98881.28
2023-12-03T13:03:07.451Z,98878.75
2023-12-03T13:05:34.417Z,98876.09
2023-12-03T13:08:01.752Z,98873.28
2023-12-03T13:10:28.580Z,98884.53
2023-12-03T13:12:55.549Z,98885.41
2023-12-03T13:15:22.742Z,98879.38
2023-12-03T13:17:55.595Z,98885.41
2023-12-03T13:20:23.663Z,98886.38
2023-12-03T13:22:51.160Z,98882.72
2023-12-03T13:25:18.940Z,98880.16
2023-12-03T13:27:46.033Z,98878.38
2023-12-03T13:30:13.029Z,98867.09
2023-12-03T13:32:41.822Z,98867.88
2023-12-03T13:35:10.169Z,98867.78
2023-12-03T13:37:37.593Z,98855.63
2023-12-03T13:40:07.755Z,98864.16
2023-12-03T13:42:35.684Z,98856.47
2023-12-03T13:45:04.108Z,98852.78
2023-12-03T13:47:33.417Z,98848.38
2023-12-03T13:50:02.142Z,98855.38
2023-12-03T13:52:29.340Z,98861.34
2023-12-03T13:54:57.804Z,98868.41
2023-12-03T13:57:24.765Z,98870.25
2023-12-03T13:59:52.045Z,98881.56
2023-12-03T14:02:27.995Z,98877.34
2023-12-03T14:05:12.511Z,98875.78
2023-12-03T14:07:47.775Z,98872.19
2023-12-03T14:10:15.134Z,98879.16
2023-12-03T14:12:42.306Z,98882.56
2023-12-03T14:15:09.688Z,98881.50
2023-12-03T14:17:36.587Z,98872.75
2023-12-03T14:20:06.322Z,98864.94
2023-12-03T14:22:33.624Z,98866.63
2023-12-03T14:25:00.739Z,98872.59
2023-12-03T14:27:27.736Z,98877.78
2023-12-03T14:29:54.632Z,98880.34
2023-12-03T14:32:21.640Z,98876.06
2023-12-03T14:34:48.469Z,98870.59
2023-12-03T14:37:15.321Z,98879.34
2023-12-03T14:39:42.175Z,98874.75
2023-12-03T14:42:09.096Z,98871.63
2023-12-03T14:44:36.055Z,98863.88
2023-12-03T14:47:03.459Z,98870.84
2023-12-03T14:49:30.374Z,98864.81
2023-12-03T14:51:57.267Z,98860.22
2023-12-03T14:54:24.202Z,98853.34
2023-12-03T14:56:51.464Z,98853.34
2023-12-03T14:59:18.260Z,98858.22
2023-12-03T15:01:46.419Z,98853.38
2023-12-03T15:04:13.330Z,98847.31
2023-12-03T15:06:40.165Z,98848.16
2023-12-03T15:09:07.068Z,98849.25
2023-12-03T15:11:33.868Z,98840.31
2023-12-03T15:14:01.103Z,98838.72
2023-12-03T15:16:29.853Z,98820.44
2023-12-03T15:18:57.182Z,98823.09
2023-12-03T15:21:24.237Z,98824.75
2023-12-03T15:23:51.316Z,98818.75
2023-12-03T15:26:18.237Z,98824.69
2023-12-03T15:28:45.125Z,98838.56
2023-12-03T15:31:12.464Z,98840.72
2023-12-03T15:33:41.348Z,98841.75
2023-12-03T15:36:09.036Z,98831.25
2023-12-03T15:38:35.835Z,98829.34
2023-12-03T15:41:02.620Z,98828.50
2023-12-03T15:43:34.406Z,98829.28
2023-12-03T15:46:08.754Z,98823.09
2023-12-03T15:48:36.037Z,98830.25
2023-12-03T15:51:03.330Z,98837.13
2023-12-03T15:53:30.422Z,98833.69
2023-12-03T15:55:57.677Z,98830.19
2023-12-03T15:58:25.603Z,98832.06
2023-12-03T16:00:53.030Z,98824.97
2023-12-03T16:03:21.248Z,98819.88
2023-12-03T16:05:48.499Z,98822.75
2023-12-03T16:08:15.346Z,98829.63
2023-12-03T16:10:42.204Z,98828.78
2023-12-03T16:13:09.094Z,98822.63
2023-12-03T16:15:36.017Z,98816.38
2023-12-03T16:18:03.069Z,98812.06
2023-12-03T16:20:30.081Z,98818.06
2023-12-03T16:22:56.979Z,98820.56
2023-12-03T16:25:24.792Z,98824.16
2023-12-03T16:27:51.608Z,98816.94
2023-12-03T16:30:18.544Z,98828.25
2023-12-03T16:32:45.492Z,98830.72
2023-12-03T16:35:12.879Z,98833.19
2023-12-03T16:37:40.520Z,98828.53
2023-12-03T16:40:08.914Z,98825.03
2023-12-03T16:42:36.649Z,98827.47
2023-12-03T16:45:04.080Z,98832.53
2023-12-03T16:47:31.199Z,98830.75
2023-12-03T16:49:59.758Z,98811.88
2023-12-03T16:52:26.696Z,98821.13
2023-12-03T16:54:55.135Z,98802.00
2023-12-03T16:57:22.595Z,98808.25
2023-12-03T16:59:50.025Z,98803.19
2023-12-03T17:02:17.156Z,98795.22
2023-12-03T17:04:44.787Z,98785.91
2023-12-03T17:07:12.272Z,98796.16
2023-12-03T17:09:39.392Z,98787.72
2023-12-03T17:12:06.435Z,98778.97
2023-12-03T17:14:33.374Z,98776.50
2023-12-03T17:17:00.177Z,98787.78
2023-12-03T17:19:27.119Z,98796.34
2023-12-03T17:21:53.973Z,98797.94
2023-12-03T17:24:20.849Z,98802.22
2023-12-03T17:26:47.752Z,98794.34
2023-12-03T17:29:14.622Z,98797.13
2023-12-03T17:31:42.518Z,98786.78
2023-12-03T17:34:09.610Z,98789.88
2023-12-03T17:36:36.649Z,98786.56
2023-12-03T17:39:07.894Z,98796.06
2023-12-03T17:41:35.897Z,98793.47
2023-12-03T17:44:03.012Z,98791.81
2023-12-03T17:46:29.999Z,98796.16
2023-12-03T17:48:57.063Z,98796.28
2023-12-03T17:51:28.532Z,98797.88
2023-12-03T17:53:55.471Z,98805.97
2023-12-03T17:56:22.252Z,98803.16
2023-12-03T17:58:49.055Z,98797.94
2023-12-03T18:01:18.599Z,98786.69
2023-12-03T18:03:46.870Z,98781.31
2023-12-03T18:06:14.099Z,98775.13
2023-12-03T18:08:40.994Z,98759.53
2023-12-03T18:11:07.892Z,98751.72
2023-12-03T18:13:34.679Z,98751.78
2023-12-03T18:16:01.748Z,98738.59
2023-12-03T18:18:28.864Z,98733.25
2023-12-03T18:20:56.044Z,98729.72
2023-12-03T18:23:24.311Z,98721.72
2023-12-03T18:25:54.298Z,98728.75
2023-12-03T18:28:21.136Z,98727.88
2023-12-03T18:30:48.858Z,98720.84
2023-12-03T18:33:18.739Z,98720.84
2023-12-03T18:35:46.726Z,98719.09
2023-12-03T18:38:13.641Z,98718.13
2023-12-03T18:40:44.196Z,98722.53
2023-12-03T18:43:11.287Z,98723.13
2023-12-03T18:45:38.305Z,98718.19
2023-12-03T18:48:05.570Z,98715.28
2023-12-03T18:50:32.461Z,98715.19
2023-12-03T18:53:00.148Z,98706.56
2023-12-03T18:55:26.990Z,98709.25
2023-12-03T18:57:54.038Z,98707.41
2023-12-03T19:00:22.011Z,98707.56
2023-12-03T19:02:49.766Z,98703.31
2023-12-03T19:05:17.385Z,98697.94
2023-12-03T19:07:50.273Z,98692.88
2023-12-03T19:10:19.669Z,98692.00
2023-12-03T19:12:51.054Z,98691.88
2023-12-03T19:15:22.560Z,98686.63
2023-12-03T19:17:49.415Z,98687.63
2023-12-03T19:20:16.297Z,98686.91
2023-12-03T19:22:43.171Z,98686.66
2023-12-03T19:25:09.920Z,98680.84
2023-12-03T19:27:36.861Z,98673.13
2023-12-03T19:30:03.911Z,98675.63
2023-12-03T19:32:31.129Z,98673.88
2023-12-03T19:34:58.167Z,98656.75
2023-12-03T19:37:25.117Z,98655.06
2023-12-03T19:39:52.330Z,98648.03
2023-12-03T19:42:19.268Z,98656.00
2023-12-03T19:44:46.068Z,98658.78
2023-12-03T19:47:13.027Z,98660.44
2023-12-03T19:49:39.801Z,98658.69
2023-12-03T19:52:07.003Z,98663.91
2023-12-03T19:54:33.839Z,98672.38
2023-12-03T19:57:01.906Z,98666.41
2023-12-03T19:59:29.375Z,98662.72
2023-12-03T20:01:57.500Z,98668.59
2023-12-03T20:04:24.521Z,98675.53
2023-12-03T20:06:51.860Z,98669.72
2023-12-03T20:09:18.845Z,98662.50
2023-12-03T20:11:45.632Z,98665.03
2023-12-03T20:14:12.473Z,98653.84
2023-12-03T20:16:39.330Z,98652.06
2023-12-03T20:19:07.464Z,98646.81
2023-12-03T20:21:34.439Z,98645.03
2023-12-03T20:24:01.264Z,98632.81
2023-12-03T20:26:28.034Z,98642.28
2023-12-03T20:28:54.829Z,98641.53
2023-12-03T20:31:22.609Z,98643.91
2023-12-03T20:33:49.650Z,98642.13
2023-12-03T20:36:16.572Z,98646.53
2023-12-03T20:38:43.410Z,98638.59
2023-12-03T20:41:23.287Z,98633.38
2023-12-03T20:43:50.845Z,98629.13
2023-12-03T20:46:18.636Z,98634.13
2023-12-03T20:48:46.124Z,98630.72
2023-12-03T20:51:14.170Z,98618.66
2023-12-03T20:53:41.732Z,98616.00
2023-12-03T20:56:10.242Z,98619.19
2023-12-03T20:58:37.062Z,98627.16
2023-12-03T21:01:04.244Z,98618.38
2023-12-03T21:03:31.328Z,98613.91
2023-12-03T21:05:58.969Z,98612.84
2023-12-03T21:08:25.824Z,98606.56
2023-12-03T21:10:52.581Z,98600.56
2023-12-03T21:13:19.783Z,98606.78
2023-12-03T21:15:46.746Z,98596.44
2023-12-03T21:18:13.676Z,98591.03
2023-12-03T21:20:40.520Z,98585.00
2023-12-03T21:23:07.415Z,98575.44
2023-12-03T21:25:35.036Z,98570.13
2023-12-03T21:28:02.088Z,98559.38
2023-12-03T21:30:29.371Z,98560.50
2023-12-03T21:32:57.964Z,98557.91
2023-12-03T21:35:25.020Z,98570.84
2023-12-03T21:37:51.931Z,98564.84
2023-12-03T21:40:18.695Z,98559.47
2023-12-03T21:42:45.681Z,98551.97
2023-12-03T21:45:12.611Z,98548.41
2023-12-03T21:47:39.587Z,98550.94
2023-12-03T21:50:07.305Z,98541.56
2023-12-03T21:52:34.161Z,98535.50
2023-12-03T21:55:01.302Z,98536.50
2023-12-03T21:57:28.245Z,98537.53
2023-12-03T21:59:55.144Z,98534.09
2023-12-03T22:02:22.121Z,98540.00
2023-12-03T22:04:49.552Z,98537.44
2023-12-03T22:07:16.498Z,98540.59
2023-12-03T22:09:43.361Z,98533.09
2023-12-03T22:12:10.146Z,98526.97
2023-12-03T22:14:37.016Z,98528.72
2023-12-03T22:17:05.592Z,98532.25
2023-12-03T22:19:32.734Z,98517.44
2023-12-03T22:21:59.899Z,98516.50
2023-12-03T22:24:27.264Z,98516.47
2023-12-03T22:26:54.300Z,98504.19
2023-12-03T22:29:29.769Z,98504.97
2023-12-03T22:32:04.386Z,98501.59
2023-12-03T22:34:31.350Z,98494.53
2023-12-03T22:36:58.224Z,98499.81
2023-12-03T22:39:25.572Z,98491.09
2023-12-03T22:41:52.423Z,98478.25
2023-12-03T22:44:19.178Z,98482.56
2023-12-03T22:46:46.032Z,98473.78
2023-12-03T22:49:17.607Z,98472.09
2023-12-03T22:51:44.578Z,98471.13
2023-12-03T22:54:11.500Z,98465.06
2023-12-03T22:56:38.252Z,98467.50
2023-12-03T22:59:05.119Z,98464.91
2023-12-03T23:01:31.899Z,98461.56
2023-12-03T23:03:58.810Z,98464.09
2023-12-03T23:06:25.805Z,98465.88
2023-12-03T23:08:52.656Z,98459.72
2023-12-03T23:11:19.589Z,98463.16
2023-12-03T23:13:46.566Z,98461.38
2023-12-03T23:16:13.580Z,98457.00
2023-12-03T23:18:42.219Z,98460.38
2023-12-03T23:21:09.158Z,98455.13
2023-12-03T23:23:35.964Z,98450.88
2023-12-03T23:26:02.814Z,98447.38
2023-12-03T23:28:29.802Z,98448.19
2023-12-03T23:30:56.885Z,98439.41
2023-12-03T23:33:23.945Z,98442.06
2023-12-03T23:35:50.807Z,98436.81
2023-12-03T23:38:17.606Z,98422.03
2023-12-03T23:40:44.389Z,98417.66
2023-12-03T23:43:11.240Z,98412.47
2023-12-03T23:45:38.022Z,98403.78
2023-12-03T23:48:05.015Z,98405.50
2023-12-03T23:50:31.840Z,98407.19
2023-12-03T23:52:58.915Z,98409.09
2023-12-03T23:55:26.176Z,98408.06
2023-12-03T23:57:53.034Z,98395.97
